Time;durP1;ratioP1;P1;durP2;ratioP2;P2;SDS_P1;SDS_P2;PMS_P1;PMS_P2;Temp;Humidity;BMP_temperature;BMP_pressure;BME280_temperature;BME280_humidity;BME280_pressure;Samples;Min_cycle;Max_cycle;Signal;HPM_P1;HPM_P2
2023/01/19 00:03:05;;;;;;;18.87;8.63;;;;;1.00;94988.00;;;;8298408;28;20669;-66
2023/01/19 00:07:11;;;;;;;16.80;8.63;;;;;0.90;94991.00;;;;8297860;28;20239;-66
2023/01/19 00:11:16;;;;;;;18.80;8.03;;;;;0.80;95001.00;;;;8298359;28;20206;-66
2023/01/19 00:15:19;;;;;;;15.10;8.03;;;;;0.80;95010.00;;;;8298370;28;20226;-66
2023/01/19 00:19:24;;;;;;;16.53;7.90;;;;;0.80;95001.00;;;;8298427;28;20207;-66
2023/01/19 00:23:27;;;;;;;18.43;8.43;;;;;0.80;95013.00;;;;8298224;28;20190;-67
2023/01/19 00:27:33;;;;;;;14.70;7.20;;;;;0.90;95022.00;;;;8283891;28;20580;-67
2023/01/19 00:31:37;;;;;;;17.37;8.67;;;;;0.80;95024.00;;;;8303509;28;20663;-67
2023/01/19 00:35:42;;;;;;;17.90;8.47;;;;;0.80;95038.00;;;;8303324;28;20318;-67
2023/01/19 00:39:48;;;;;;;18.93;8.20;;;;;0.80;95031.00;;;;8302918;28;20621;-67
2023/01/19 00:43:54;;;;;;;19.90;8.17;;;;;0.80;95039.00;;;;8303570;28;20194;-67
2023/01/19 00:47:57;;;;;;;15.47;7.83;;;;;0.70;95054.00;;;;8302686;28;20642;-68
2023/01/19 00:52:01;;;;;;;16.93;7.60;;;;;0.70;95047.00;;;;8303180;28;20535;-68
2023/01/19 00:56:05;;;;;;;15.47;8.43;;;;;0.60;95043.00;;;;8302768;28;20234;-68
2023/01/19 01:00:12;;;;;;;20.30;8.27;;;;;0.50;95044.00;;;;8301966;28;20190;-68
2023/01/19 01:04:15;;;;;;;19.97;8.30;;;;;0.50;95056.00;;;;8303066;28;20226;-68
2023/01/19 01:08:20;;;;;;;17.20;8.07;;;;;0.40;95053.00;;;;8302263;28;20517;-68
2023/01/19 01:12:23;;;;;;;15.03;8.37;;;;;0.30;95064.00;;;;8302368;28;20640;-69
2023/01/19 01:16:28;;;;;;;21.03;9.43;;;;;0.30;95057.00;;;;8302289;28;20658;-69
2023/01/19 01:20:33;;;;;;;23.27;9.60;;;;;0.30;95074.00;;;;8302614;28;20195;-68
2023/01/19 01:24:38;;;;;;;24.10;10.47;;;;;0.30;95083.00;;;;8300944;28;20195;-69
2023/01/19 01:28:41;;;;;;;18.90;9.30;;;;;0.40;95090.00;;;;8302265;28;20209;-69
2023/01/19 01:32:47;;;;;;;21.57;9.63;;;;;0.50;95090.00;;;;8300991;28;20203;-69
2023/01/19 01:36:50;;;;;;;26.27;9.93;;;;;0.40;95109.00;;;;8301860;28;20198;-69
2023/01/19 01:40:54;;;;;;;18.20;9.60;;;;;0.40;95109.00;;;;8301277;28;20583;-69
2023/01/19 01:45:02;;;;;;;22.77;11.23;;;;;0.50;95110.00;;;;8299180;28;20252;-69
2023/01/19 01:49:08;;;;;;;19.57;10.23;;;;;0.50;95106.00;;;;8301718;28;20195;-69
2023/01/19 01:53:16;;;;;;;28.07;10.43;;;;;0.50;95114.00;;;;8300426;28;20219;-68
2023/01/19 01:57:21;;;;;;;26.70;9.60;;;;;0.50;95115.00;;;;8300866;28;20197;-68
2023/01/19 02:05:44;;;;;;;20.77;10.03;;;;;0.50;95128.00;;;;8257572;28;20202;-68
2023/01/19 02:14:11;;;;;;;26.03;10.10;;;;;0.60;95133.00;;;;8298534;28;20586;-68
2023/01/19 02:18:26;;;;;;;23.27;11.23;;;;;0.70;95127.00;;;;8300128;28;20202;-67
2023/01/19 02:22:37;;;;;;;23.33;10.93;;;;;0.70;95132.00;;;;8299297;28;20192;-67
2023/01/19 02:26:45;;;;;;;26.43;10.70;;;;;0.70;95124.00;;;;8300778;28;20653;-68
2023/01/19 02:30:49;;;;;;;23.10;11.00;;;;;0.70;95129.00;;;;8299164;28;20195;-67
2023/01/19 02:34:52;;;;;;;22.83;10.13;;;;;0.80;95114.00;;;;8299522;28;20219;-67
2023/01/19 02:38:58;;;;;;;24.37;10.37;;;;;0.80;95117.00;;;;8299704;28;20281;-68
2023/01/19 02:43:04;;;;;;;21.93;10.17;;;;;0.80;95125.00;;;;8300093;28;20194;-67
2023/01/19 02:47:10;;;;;;;22.20;10.23;;;;;0.80;95125.00;;;;8281279;28;20195;-67
2023/01/19 02:51:17;;;;;;;28.53;11.37;;;;;0.90;95131.00;;;;8299717;28;20674;-67
2023/01/19 02:55:26;;;;;;;23.20;11.13;;;;;1.00;95138.00;;;;8281414;28;20210;-67
2023/01/19 02:59:44;;;;;;;28.43;11.97;;;;;1.00;95142.00;;;;8299759;28;20220;-67
2023/01/19 03:03:54;;;;;;;25.97;11.77;;;;;1.10;95149.00;;;;8334395;23;20320;-68
2023/01/19 03:08:06;;;;;;;24.17;11.53;;;;;1.10;95135.00;;;;8312006;28;20216;-70
2023/01/19 03:12:19;;;;;;;24.10;11.87;;;;;1.20;95147.00;;;;8316752;28;20941;-70
2023/01/19 03:16:31;;;;;;;23.07;11.60;;;;;1.10;95142.00;;;;8311075;28;20325;-68
2023/01/19 03:20:37;;;;;;;27.73;12.20;;;;;1.20;95145.00;;;;8307630;28;20203;-68
2023/01/19 03:24:45;;;;;;;21.70;11.60;;;;;1.20;95138.00;;;;8318766;28;20206;-69
2023/01/19 03:28:49;;;;;;;28.20;12.40;;;;;1.20;95144.00;;;;8315866;28;20196;-69
2023/01/19 03:32:58;;;;;;;26.07;11.47;;;;;1.20;95139.00;;;;8305535;28;20205;-68
2023/01/19 03:37:05;;;;;;;32.70;13.13;;;;;1.10;95148.00;;;;8308907;28;20227;-67
2023/01/19 03:41:14;;;;;;;26.40;11.47;;;;;1.10;95151.00;;;;8309042;28;20193;-69
2023/01/19 03:45:21;;;;;;;23.73;11.87;;;;;1.10;95155.00;;;;8312221;28;20198;-68
2023/01/19 03:49:27;;;;;;;22.37;11.57;;;;;1.10;95152.00;;;;8293165;28;20636;-68
2023/01/19 03:53:30;;;;;;;25.00;11.43;;;;;0.90;95149.00;;;;8310554;28;20194;-69
2023/01/19 03:57:33;;;;;;;21.20;11.00;;;;;0.80;95144.00;;;;8314359;28;20202;-69
2023/01/19 04:01:36;;;;;;;24.93;10.73;;;;;0.70;95143.00;;;;8316898;28;20950;-69
2023/01/19 04:05:41;;;;;;;24.97;10.53;;;;;0.50;95142.00;;;;8321077;28;20672;-68
2023/01/19 04:09:44;;;;;;;30.13;11.63;;;;;0.40;95142.00;;;;8305431;28;20240;-68
2023/01/19 04:13:48;;;;;;;23.60;10.83;;;;;0.30;95140.00;;;;8321086;28;20216;-69
2023/01/19 04:17:52;;;;;;;22.43;11.00;;;;;0.20;95158.00;;;;8315277;28;20258;-69
2023/01/19 04:21:58;;;;;;;21.97;11.57;;;;;0.10;95146.00;;;;8311702;28;20222;-69
2023/01/19 04:26:08;;;;;;;27.07;11.70;;;;;0.00;95147.00;;;;8315654;28;20210;-69
2023/01/19 04:30:14;;;;;;;27.33;11.37;;;;;-0.10;95142.00;;;;8322158;28;20256;-68
2023/01/19 04:34:19;;;;;;;27.50;11.90;;;;;-0.20;95140.00;;;;8326907;28;20267;-68
2023/01/19 04:38:24;;;;;;;22.53;11.10;;;;;-0.30;95141.00;;;;8312892;28;20234;-72
2023/01/19 04:42:29;;;;;;;23.80;10.77;;;;;-0.30;95143.00;;;;8321296;28;20292;-72
2023/01/19 04:46:33;;;;;;;24.57;11.13;;;;;-0.40;95153.00;;;;8312971;28;20449;-72
2023/01/19 04:50:40;;;;;;;24.57;11.53;;;;;-0.50;95154.00;;;;8315888;28;20206;-72
2023/01/19 04:54:47;;;;;;;19.57;10.33;;;;;-0.50;95156.00;;;;8313167;28;20275;-72
2023/01/19 04:58:56;;;;;;;24.90;10.67;;;;;-0.60;95153.00;;;;8295195;28;20214;-73
2023/01/19 05:03:00;;;;;;;27.93;11.23;;;;;-0.70;95141.00;;;;8313481;28;20644;-73
2023/01/19 05:07:04;;;;;;;26.23;10.47;;;;;-0.80;95152.00;;;;8307170;28;20198;-72
2023/01/19 05:11:08;;;;;;;26.93;12.27;;;;;-0.80;95145.00;;;;8309547;28;20263;-71
2023/01/19 05:15:11;;;;;;;28.47;11.27;;;;;-0.80;95149.00;;;;8311899;28;20216;-71
2023/01/19 05:19:16;;;;;;;28.77;12.17;;;;;-0.90;95148.00;;;;8313617;28;20638;-72
2023/01/19 05:23:19;;;;;;;23.27;11.20;;;;;-0.90;95154.00;;;;8311198;28;20207;-71
2023/01/19 05:27:29;;;;;;;25.07;11.17;;;;;-0.90;95147.00;;;;8300126;28;20255;-72
2023/01/19 05:31:34;;;;;;;23.77;11.33;;;;;-1.00;95151.00;;;;8311590;28;20210;-71
2023/01/19 05:35:38;;;;;;;22.10;11.27;;;;;-1.00;95155.00;;;;8315222;28;20287;-71
2023/01/19 05:39:41;;;;;;;21.07;10.90;;;;;-1.10;95155.00;;;;8314447;28;20198;-71
2023/01/19 05:43:48;;;;;;;25.33;11.30;;;;;-1.10;95158.00;;;;8318811;28;20895;-71
2023/01/19 05:47:53;;;;;;;22.97;11.00;;;;;-1.20;95149.00;;;;8317690;28;20742;-70
2023/01/19 05:51:56;;;;;;;21.90;10.90;;;;;-1.20;95152.00;;;;8315682;28;20205;-71
2023/01/19 05:56:00;;;;;;;25.67;12.10;;;;;-1.20;95157.00;;;;8297290;28;20284;-71
2023/01/19 06:00:09;;;;;;;24.87;10.10;;;;;-1.30;95151.00;;;;8314503;28;20197;-71
2023/01/19 06:04:14;;;;;;;26.87;11.57;;;;;-1.30;95156.00;;;;8307141;28;20292;-71
2023/01/19 06:08:17;;;;;;;20.73;11.33;;;;;-1.40;95164.00;;;;8309214;28;20237;-72
2023/01/19 06:12:23;;;;;;;29.13;11.87;;;;;-1.40;95174.00;;;;8291921;28;20906;-71
2023/01/19 06:16:28;;;;;;;22.27;11.07;;;;;-1.50;95174.00;;;;8311886;28;20226;-72
2023/01/19 06:20:34;;;;;;;23.77;10.97;;;;;-1.50;95178.00;;;;8312061;28;20220;-71
2023/01/19 06:24:37;;;;;;;28.10;11.53;;;;;-1.60;95182.00;;;;8314456;28;20264;-71
2023/01/19 06:28:43;;;;;;;25.53;11.03;;;;;-1.70;95190.00;;;;8313345;28;20793;-71
2023/01/19 06:32:47;;;;;;;26.03;11.03;;;;;-1.80;95194.00;;;;8311810;28;20271;-71
2023/01/19 06:36:50;;;;;;;19.83;10.70;;;;;-1.90;95206.00;;;;8310436;28;20740;-71
2023/01/19 06:41:01;;;;;;;24.30;10.50;;;;;-2.10;95211.00;;;;8316900;28;20249;-71
2023/01/19 06:45:08;;;;;;;26.83;10.90;;;;;-2.20;95221.00;;;;8309060;28;20622;-71
2023/01/19 06:49:17;;;;;;;27.97;11.80;;;;;-2.20;95236.00;;;;8311633;28;20301;-70
2023/01/19 06:53:22;;;;;;;24.27;11.40;;;;;-2.10;95236.00;;;;8308441;28;20228;-71
2023/01/19 06:57:25;;;;;;;24.73;11.23;;;;;-2.00;95240.00;;;;8311524;28;20291;-70
2023/01/19 07:01:32;;;;;;;23.50;11.57;;;;;-1.90;95259.00;;;;8314058;28;20224;-71
2023/01/19 07:05:39;;;;;;;25.47;11.77;;;;;-1.90;95267.00;;;;8308863;28;20205;-70
2023/01/19 07:09:44;;;;;;;24.27;11.77;;;;;-1.90;95272.00;;;;8305810;28;20240;-70
2023/01/19 07:13:50;;;;;;;28.47;13.03;;;;;-1.90;95282.00;;;;8314224;28;20208;-70
2023/01/19 07:17:53;;;;;;;29.23;13.20;;;;;-1.70;95286.00;;;;8294998;28;20282;-70
2023/01/19 07:21:58;;;;;;;28.70;13.07;;;;;-1.50;95289.00;;;;8313006;28;20205;-71
2023/01/19 07:26:01;;;;;;;27.13;13.00;;;;;-1.30;95298.00;;;;8313164;28;20193;-71
2023/01/19 07:30:08;;;;;;;29.17;12.33;;;;;-1.20;95302.00;;;;8313356;28;20202;-70
2023/01/19 07:34:15;;;;;;;29.40;13.50;;;;;-0.90;95300.00;;;;8310595;28;20205;-71
2023/01/19 07:38:20;;;;;;;30.10;14.03;;;;;-0.70;95305.00;;;;8305184;28;20253;-71
2023/01/19 07:42:26;;;;;;;30.77;14.17;;;;;-0.50;95303.00;;;;8314503;28;20256;-71
2023/01/19 07:46:31;;;;;;;31.73;13.37;;;;;-0.30;95300.00;;;;8318571;28;20208;-70
2023/01/19 07:50:34;;;;;;;27.97;13.20;;;;;-0.10;95310.00;;;;8313163;28;20198;-70
2023/01/19 07:54:49;;;;;;;27.70;13.00;;;;;0.00;95314.00;;;;8311166;28;20211;-70
2023/01/19 07:58:52;;;;;;;30.80;13.67;;;;;0.00;95317.00;;;;8311357;28;20340;-69
2023/01/19 08:02:59;;;;;;;29.43;12.93;;;;;0.10;95332.00;;;;8310671;28;20381;-69
2023/01/19 08:07:05;;;;;;;28.00;12.30;;;;;0.20;95333.00;;;;8287528;28;20209;-70
2023/01/19 08:11:10;;;;;;;28.93;12.70;;;;;0.30;95338.00;;;;8312049;28;20301;-70
2023/01/19 08:15:14;;;;;;;32.43;12.93;;;;;0.50;95339.00;;;;8297593;28;20292;-70
2023/01/19 08:19:20;;;;;;;27.17;13.07;;;;;0.60;95342.00;;;;8309437;28;20200;-70
2023/01/19 08:23:23;;;;;;;28.03;12.90;;;;;0.70;95335.00;;;;8306554;28;20224;-70
2023/01/19 08:27:33;;;;;;;26.97;12.83;;;;;0.70;95342.00;;;;8306475;28;20197;-70
2023/01/19 08:31:40;;;;;;;29.67;13.10;;;;;0.70;95339.00;;;;8309939;28;20214;-71
2023/01/19 08:35:47;;;;;;;26.87;12.23;;;;;0.70;95347.00;;;;8312661;28;20229;-71
2023/01/19 08:39:52;;;;;;;26.30;12.30;;;;;0.80;95347.00;;;;8311308;28;20233;-71
2023/01/19 08:43:57;;;;;;;26.93;12.77;;;;;1.00;95350.00;;;;8314019;28;20651;-71
2023/01/19 08:48:05;;;;;;;26.77;12.57;;;;;1.30;95350.00;;;;8315333;28;20207;-71
2023/01/19 08:52:08;;;;;;;24.70;12.00;;;;;1.40;95360.00;;;;8316783;28;20570;-71
2023/01/19 08:56:12;;;;;;;23.27;11.50;;;;;1.50;95355.00;;;;8291853;28;20234;-71
2023/01/19 09:00:26;;;;;;;20.03;10.40;;;;;1.60;95371.00;;;;8311425;28;20280;-72
2023/01/19 09:04:31;;;;;;;23.13;11.13;;;;;1.60;95361.00;;;;8295622;28;20780;-72
2023/01/19 09:08:39;;;;;;;73.43;26.00;;;;;1.50;95362.00;;;;8305498;28;20364;-71
2023/01/19 09:12:45;;;;;;;46.23;19.53;;;;;1.50;95365.00;;;;8307474;28;20554;-71
2023/01/19 09:16:50;;;;;;;33.97;14.90;;;;;1.70;95372.00;;;;8309812;28;20988;-70
2023/01/19 09:20:57;;;;;;;29.27;13.90;;;;;1.80;95379.00;;;;8308841;28;20201;-70
2023/01/19 09:25:03;;;;;;;23.83;12.07;;;;;2.00;95376.00;;;;8310398;28;20205;-72
2023/01/19 09:29:06;;;;;;;17.10;9.77;;;;;2.00;95373.00;;;;8307737;28;21094;-69
2023/01/19 09:33:13;;;;;;;20.17;10.83;;;;;2.00;95369.00;;;;8309839;28;20296;-70
2023/01/19 09:37:16;;;;;;;13.27;9.00;;;;;2.00;95377.00;;;;8310917;28;20254;-70
2023/01/19 09:41:24;;;;;;;20.17;9.37;;;;;2.10;95370.00;;;;8308895;28;20210;-70
2023/01/19 09:45:35;;;;;;;17.83;8.57;;;;;2.20;95371.00;;;;8316868;28;20207;-71
2023/01/19 09:49:43;;;;;;;17.03;8.33;;;;;2.20;95372.00;;;;8303473;28;20205;-70
2023/01/19 09:54:02;;;;;;;16.43;8.17;;;;;2.10;95367.00;;;;8298580;28;20203;-71
2023/01/19 09:58:15;;;;;;;14.87;7.57;;;;;2.00;95362.00;;;;8309608;28;20237;-72
2023/01/19 10:02:38;;;;;;;19.53;8.63;;;;;1.80;95363.00;;;;8300015;28;20224;-73
2023/01/19 10:06:46;;;;;;;14.90;8.40;;;;;1.90;95362.00;;;;8304386;28;20194;-71
2023/01/19 10:10:54;;;;;;;14.83;7.60;;;;;2.00;95372.00;;;;8306578;28;20238;-72
2023/01/19 10:15:11;;;;;;;12.73;7.17;;;;;2.10;95370.00;;;;8312770;28;20625;-70
2023/01/19 10:19:22;;;;;;;11.83;6.83;;;;;2.20;95373.00;;;;8302573;28;20314;-72
2023/01/19 10:23:46;;;;;;;9.90;5.90;;;;;2.30;95365.00;;;;8312082;28;20214;-70
2023/01/19 10:27:50;;;;;;;9.60;5.70;;;;;2.30;95359.00;;;;8308793;28;20199;-70
2023/01/19 10:32:08;;;;;;;15.67;8.10;;;;;2.50;95353.00;;;;8311264;28;20204;-70
2023/01/19 10:36:18;;;;;;;14.83;7.43;;;;;2.80;95368.00;;;;8315612;28;20199;-71
2023/01/19 10:40:30;;;;;;;14.87;7.17;;;;;3.00;95375.00;;;;8314017;28;21070;-70
2023/01/19 10:44:39;;;;;;;15.13;6.97;;;;;3.10;95377.00;;;;8311927;28;20264;-70
2023/01/19 10:48:46;;;;;;;8.30;5.37;;;;;3.10;95375.00;;;;8307319;28;20204;-71
2023/01/19 10:52:52;;;;;;;13.73;6.47;;;;;3.10;95365.00;;;;8308668;28;20296;-70
2023/01/19 10:57:02;;;;;;;14.57;6.07;;;;;3.10;95358.00;;;;8311648;28;20633;-71
2023/01/19 11:01:14;;;;;;;9.60;6.13;;;;;3.20;95365.00;;;;8310053;28;20235;-70
2023/01/19 11:05:26;;;;;;;12.37;6.10;;;;;3.40;95354.00;;;;8305441;28;20203;-70
2023/01/19 11:09:32;;;;;;;7.77;5.23;;;;;3.60;95358.00;;;;8305846;28;20295;-71
2023/01/19 11:13:40;;;;;;;11.53;6.73;;;;;3.60;95346.00;;;;8307819;28;20287;-71
2023/01/19 11:17:48;;;;;;;14.67;6.30;;;;;3.50;95344.00;;;;8312450;28;20308;-70
2023/01/19 11:21:51;;;;;;;11.90;6.23;;;;;3.60;95348.00;;;;8305538;28;20199;-69
2023/01/19 11:26:00;;;;;;;10.87;5.80;;;;;3.50;95340.00;;;;8300862;28;20255;-69
2023/01/19 11:30:19;;;;;;;13.87;6.47;;;;;3.40;95347.00;;;;8307539;28;20849;-69
2023/01/19 11:34:26;;;;;;;9.67;5.27;;;;;3.40;95342.00;;;;8279766;28;20200;-69
2023/01/19 11:38:29;;;;;;;8.97;5.97;;;;;3.30;95342.00;;;;8304858;28;20606;-70
2023/01/19 11:42:35;;;;;;;10.30;6.00;;;;;3.10;95342.00;;;;8310479;28;20204;-70
2023/01/19 11:46:46;;;;;;;16.30;6.73;;;;;3.20;95339.00;;;;8314103;28;20309;-69
2023/01/19 11:50:56;;;;;;;13.47;6.30;;;;;3.10;95341.00;;;;8325367;28;20291;-69
2023/01/19 11:55:05;;;;;;;15.27;6.60;;;;;3.00;95333.00;;;;8325620;28;20186;-69
2023/01/19 11:59:12;;;;;;;11.97;6.03;;;;;2.90;95322.00;;;;8324008;28;20225;-70
2023/01/19 12:03:24;;;;;;;12.93;6.47;;;;;2.90;95320.00;;;;8327821;28;20671;-70
2023/01/19 12:07:31;;;;;;;9.43;6.23;;;;;2.90;95328.00;;;;8327031;28;20200;-70
2023/01/19 12:11:39;;;;;;;8.60;5.40;;;;;3.00;95319.00;;;;8329853;28;20233;-69
2023/01/19 12:15:44;;;;;;;10.23;5.93;;;;;3.00;95329.00;;;;8327475;28;20201;-68
2023/01/19 12:19:53;;;;;;;10.13;5.70;;;;;3.20;95325.00;;;;8329861;28;20230;-71
2023/01/19 12:24:12;;;;;;;12.87;5.80;;;;;3.40;95314.00;;;;8330792;28;20201;-71
2023/01/19 12:28:18;;;;;;;8.83;5.20;;;;;3.50;95316.00;;;;8337126;28;20291;-70
2023/01/19 12:32:33;;;;;;;10.10;4.97;;;;;3.60;95319.00;;;;8336272;28;20196;-70
2023/01/19 12:36:42;;;;;;;9.20;5.70;;;;;3.60;95314.00;;;;8336343;28;20218;-72
2023/01/19 12:40:48;;;;;;;9.23;4.80;;;;;3.50;95313.00;;;;8336661;28;20229;-71
2023/01/19 12:45:06;;;;;;;7.83;4.57;;;;;3.60;95310.00;;;;8336878;28;20199;-71
2023/01/19 12:49:20;;;;;;;7.57;4.33;;;;;3.60;95309.00;;;;8335294;28;20251;-72
2023/01/19 12:53:26;;;;;;;9.60;6.40;;;;;3.60;95314.00;;;;8335918;28;20254;-73
2023/01/19 12:57:33;;;;;;;18.50;10.50;;;;;3.60;95318.00;;;;8318145;28;20265;-72
2023/01/19 13:01:36;;;;;;;8.30;5.87;;;;;3.60;95317.00;;;;8335060;28;20269;-72
2023/01/19 13:05:57;;;;;;;10.53;5.87;;;;;3.60;95318.00;;;;8334519;28;20622;-72
2023/01/19 13:10:44;;;;;;;5.40;4.33;;;;;3.60;95316.00;;;;8332825;28;20367;-71
2023/01/19 13:14:50;;;;;;;6.97;3.80;;;;;3.50;95310.00;;;;8333256;28;20269;-72
2023/01/19 13:18:56;;;;;;;9.20;3.93;;;;;3.50;95316.00;;;;8335000;28;20282;-72
2023/01/19 13:23:19;;;;;;;6.47;3.50;;;;;3.40;95314.00;;;;8334581;28;20663;-72
2023/01/19 13:27:27;;;;;;;4.70;3.60;;;;;3.40;95303.00;;;;8335203;28;20209;-72
2023/01/19 13:31:35;;;;;;;5.20;3.43;;;;;3.30;95304.00;;;;8332385;28;20254;-71
2023/01/19 13:35:39;;;;;;;4.37;3.30;;;;;3.30;95309.00;;;;8332726;28;20208;-72
2023/01/19 13:39:45;;;;;;;5.87;3.13;;;;;3.30;95312.00;;;;8333959;28;20219;-72
2023/01/19 13:43:58;;;;;;;3.40;3.10;;;;;3.30;95312.00;;;;8334412;28;20221;-72
2023/01/19 13:48:06;;;;;;;3.53;2.53;;;;;3.40;95313.00;;;;8334685;28;20649;-72
2023/01/19 13:52:15;;;;;;;4.17;2.50;;;;;3.40;95317.00;;;;8334018;28;20200;-72
2023/01/19 13:56:20;;;;;;;4.30;2.40;;;;;3.50;95313.00;;;;8333619;28;20292;-72
2023/01/19 14:00:26;;;;;;;4.63;2.63;;;;;3.40;95329.00;;;;8333521;28;20268;-72
2023/01/19 14:04:35;;;;;;;65.57;26.33;;;;;3.40;95326.00;;;;8333946;28;20226;-72
2023/01/19 14:08:38;;;;;;;5.73;3.77;;;;;3.30;95331.00;;;;8333726;28;20188;-72
2023/01/19 14:12:41;;;;;;;17.60;10.40;;;;;3.20;95328.00;;;;8333027;28;20191;-72
2023/01/19 14:17:02;;;;;;;56.17;28.37;;;;;3.10;95333.00;;;;8333720;28;20333;-71
2023/01/19 14:21:10;;;;;;;4.53;3.43;;;;;3.10;95333.00;;;;8332937;28;20578;-71
2023/01/19 14:25:31;;;;;;;6.77;4.13;;;;;3.00;95328.00;;;;8330463;28;20220;-71
2023/01/19 14:29:36;;;;;;;5.00;4.20;;;;;3.00;95330.00;;;;8333312;28;20287;-71
2023/01/19 14:33:45;;;;;;;3.37;2.90;;;;;3.00;95341.00;;;;8333556;28;20348;-73
2023/01/19 14:37:51;;;;;;;6.50;2.80;;;;;3.00;95335.00;;;;8332211;28;20229;-72
2023/01/19 14:41:59;;;;;;;2.47;2.27;;;;;3.00;95338.00;;;;8330987;28;20531;-72
2023/01/19 14:46:04;;;;;;;2.90;2.67;;;;;2.90;95339.00;;;;8331606;28;20205;-73
2023/01/19 14:50:20;;;;;;;6.53;4.70;;;;;2.90;95335.00;;;;8332247;28;20626;-73
2023/01/19 14:54:33;;;;;;;51.03;34.13;;;;;2.90;95340.00;;;;8329434;28;20199;-72
2023/01/19 14:58:36;;;;;;;2.47;2.27;;;;;3.00;95344.00;;;;8331731;28;20216;-72
2023/01/19 15:02:39;;;;;;;2.53;2.33;;;;;2.90;95340.00;;;;8331642;28;20661;-73
2023/01/19 15:06:59;;;;;;;2.23;2.10;;;;;2.80;95340.00;;;;8292937;28;20590;-73
2023/01/19 15:11:10;;;;;;;2.10;1.90;;;;;2.70;95336.00;;;;8331862;28;20218;-73
2023/01/19 15:15:16;;;;;;;2.60;2.40;;;;;2.70;95339.00;;;;8331120;28;20208;-74
2023/01/19 15:19:22;;;;;;;2.50;2.30;;;;;2.60;95350.00;;;;8312298;28;20664;-74
2023/01/19 15:23:27;;;;;;;3.60;3.30;;;;;2.50;95343.00;;;;8328842;28;20199;-75
2023/01/19 15:27:31;;;;;;;2.80;2.60;;;;;2.50;95347.00;;;;8326679;28;20707;-73
2023/01/19 15:31:38;;;;;;;3.40;2.50;;;;;2.50;95350.00;;;;8329807;28;20197;-72
2023/01/19 15:35:44;;;;;;;4.23;2.70;;;;;2.50;95350.00;;;;8331572;28;20636;-72
2023/01/19 15:39:49;;;;;;;13.67;9.23;;;;;2.50;95347.00;;;;8330883;28;20313;-75
2023/01/19 15:43:54;;;;;;;6.60;3.07;;;;;2.50;95347.00;;;;8330666;28;20305;-75
2023/01/19 15:47:57;;;;;;;4.33;3.27;;;;;2.50;95356.00;;;;8331432;28;20196;-75
2023/01/19 15:52:02;;;;;;;4.57;3.37;;;;;2.50;95349.00;;;;8330340;28;20538;-74
2023/01/19 15:56:15;;;;;;;4.03;3.17;;;;;2.50;95362.00;;;;8332651;28;20603;-75
2023/01/19 16:00:22;;;;;;;5.50;3.17;;;;;2.50;95362.00;;;;8337035;28;20260;-75
2023/01/19 16:04:25;;;;;;;4.53;3.10;;;;;2.50;95350.00;;;;8337769;28;20219;-74
2023/01/19 16:08:28;;;;;;;5.17;3.17;;;;;2.40;95352.00;;;;8338260;28;20651;-74
2023/01/19 16:12:34;;;;;;;4.57;3.07;;;;;2.40;95359.00;;;;8336884;28;20231;-74
2023/01/19 16:16:41;;;;;;;3.63;2.80;;;;;2.40;95355.00;;;;8337677;28;20687;-74
2023/01/19 16:20:47;;;;;;;4.80;3.23;;;;;2.40;95365.00;;;;8336812;28;20225;-75
2023/01/19 16:24:51;;;;;;;7.10;3.10;;;;;2.40;95367.00;;;;8336419;28;20192;-74
2023/01/19 16:29:09;;;;;;;5.23;2.90;;;;;2.40;95363.00;;;;8336579;28;20257;-74
2023/01/19 16:33:13;;;;;;;5.43;3.60;;;;;2.40;95369.00;;;;8337079;28;20211;-74
2023/01/19 16:37:20;;;;;;;34.73;10.43;;;;;2.50;95373.00;;;;8336405;28;20195;-73
2023/01/19 16:41:23;;;;;;;4.43;2.97;;;;;2.50;95377.00;;;;8335995;28;20288;-74
2023/01/19 16:45:34;;;;;;;3.70;3.33;;;;;2.50;95380.00;;;;8336840;28;20197;-73
2023/01/19 16:49:42;;;;;;;3.20;2.80;;;;;2.50;95377.00;;;;8335523;28;20201;-73
2023/01/19 16:53:46;;;;;;;5.57;3.70;;;;;2.40;95394.00;;;;8336545;28;20546;-74
2023/01/19 16:57:52;;;;;;;7.83;3.50;;;;;2.40;95386.00;;;;8336526;28;20184;-73
2023/01/19 17:01:57;;;;;;;6.30;4.03;;;;;2.40;95383.00;;;;8336261;28;20908;-74
2023/01/19 17:06:03;;;;;;;9.00;3.87;;;;;2.40;95381.00;;;;8335782;28;20194;-74
2023/01/19 17:10:08;;;;;;;7.97;4.40;;;;;2.40;95381.00;;;;8334056;28;20249;-73
2023/01/19 17:14:13;;;;;;;7.47;4.90;;;;;2.40;95386.00;;;;8335940;28;20249;-72
2023/01/19 17:18:21;;;;;;;10.00;5.30;;;;;2.40;95392.00;;;;8334333;28;20198;-75
2023/01/19 17:22:29;;;;;;;11.27;6.00;;;;;2.30;95389.00;;;;8336283;28;20253;-75
2023/01/19 17:26:32;;;;;;;14.03;6.23;;;;;2.30;95392.00;;;;8335448;28;20260;-73
2023/01/19 17:30:36;;;;;;;12.30;6.87;;;;;2.30;95399.00;;;;8332620;28;20207;-73
2023/01/19 17:34:41;;;;;;;11.00;6.53;;;;;2.30;95399.00;;;;8335218;28;20196;-73
2023/01/19 17:38:46;;;;;;;19.73;7.80;;;;;2.30;95399.00;;;;8334751;28;20185;-73
2023/01/19 17:42:52;;;;;;;12.87;7.00;;;;;2.20;95413.00;;;;8334982;28;20635;-73
2023/01/19 17:46:56;;;;;;;14.27;7.27;;;;;2.20;95402.00;;;;8334082;28;20629;-73
2023/01/19 17:51:04;;;;;;;15.03;6.83;;;;;2.20;95406.00;;;;8317277;28;20220;-73
2023/01/19 17:55:11;;;;;;;12.37;7.40;;;;;2.20;95411.00;;;;8334261;28;20245;-73
2023/01/19 17:59:14;;;;;;;16.03;7.20;;;;;2.20;95412.00;;;;8333920;28;20272;-73
2023/01/19 18:03:20;;;;;;;17.13;7.43;;;;;2.20;95415.00;;;;8334063;28;20230;-73
2023/01/19 18:07:30;;;;;;;15.17;7.50;;;;;2.30;95410.00;;;;8334033;28;20204;-72
2023/01/19 18:11:33;;;;;;;15.33;7.43;;;;;2.30;95407.00;;;;8334231;28;20188;-73
2023/01/19 18:15:45;;;;;;;14.33;7.80;;;;;2.30;95409.00;;;;8333509;28;20291;-73
2023/01/19 18:19:53;;;;;;;15.13;7.60;;;;;2.30;95412.00;;;;8332506;28;20214;-73
2023/01/19 18:24:03;;;;;;;16.93;8.00;;;;;2.30;95414.00;;;;8332734;28;20205;-73
2023/01/19 18:28:07;;;;;;;15.73;8.33;;;;;2.20;95413.00;;;;8333094;28;20196;-73
2023/01/19 18:32:10;;;;;;;16.97;7.53;;;;;2.30;95423.00;;;;8332973;28;20212;-73
2023/01/19 18:36:14;;;;;;;12.07;7.67;;;;;2.30;95416.00;;;;8333322;28;20254;-75
2023/01/19 18:40:19;;;;;;;14.77;7.97;;;;;2.30;95414.00;;;;8332224;28;20231;-74
2023/01/19 18:44:22;;;;;;;12.87;7.20;;;;;2.30;95413.00;;;;8333063;28;20197;-73
2023/01/19 18:48:26;;;;;;;14.13;7.47;;;;;2.30;95414.00;;;;8332007;28;20196;-72
2023/01/19 18:52:32;;;;;;;18.20;8.23;;;;;2.30;95427.00;;;;8331056;28;20202;-74
2023/01/19 18:56:39;;;;;;;13.73;6.70;;;;;2.30;95419.00;;;;8331261;28;20229;-74
2023/01/19 19:00:43;;;;;;;17.20;7.93;;;;;2.20;95415.00;;;;8331580;28;20231;-74
2023/01/19 19:04:46;;;;;;;15.50;8.30;;;;;2.30;95422.00;;;;8332105;28;20213;-75
2023/01/19 19:08:54;;;;;;;13.70;7.87;;;;;2.20;95412.00;;;;8329995;28;20195;-73
2023/01/19 19:13:04;;;;;;;16.77;7.43;;;;;2.20;95415.00;;;;8330380;28;20257;-72
2023/01/19 19:17:10;;;;;;;16.03;8.40;;;;;2.20;95417.00;;;;8330680;28;20310;-72
2023/01/19 19:21:13;;;;;;;15.57;7.83;;;;;2.20;95415.00;;;;8331838;28;20610;-73
2023/01/19 19:25:19;;;;;;;13.83;7.57;;;;;2.20;95417.00;;;;8311932;28;20602;-72
2023/01/19 19:29:23;;;;;;;21.10;8.93;;;;;2.10;95419.00;;;;8324685;28;20259;-72
2023/01/19 19:33:26;;;;;;;15.17;7.37;;;;;2.00;95417.00;;;;8336914;28;20204;-74
2023/01/19 19:37:30;;;;;;;14.83;7.83;;;;;1.90;95419.00;;;;8338240;28;20198;-73
2023/01/19 19:41:37;;;;;;;13.57;8.17;;;;;1.80;95420.00;;;;8337526;28;20225;-73
2023/01/19 19:45:43;;;;;;;18.67;8.67;;;;;1.60;95422.00;;;;8338584;28;20215;-71
2023/01/19 19:49:47;;;;;;;14.00;7.20;;;;;1.40;95424.00;;;;8320470;28;20195;-74
2023/01/19 19:53:51;;;;;;;14.63;7.50;;;;;1.10;95433.00;;;;8337546;28;20222;-73
2023/01/19 19:57:56;;;;;;;14.33;7.67;;;;;0.90;95426.00;;;;8320747;28;20238;-74
2023/01/19 20:02:06;;;;;;;13.63;7.60;;;;;0.70;95426.00;;;;8337416;28;20232;-74
2023/01/19 20:06:12;;;;;;;16.33;7.57;;;;;0.40;95433.00;;;;8337623;28;20191;-73
2023/01/19 20:10:19;;;;;;;19.27;8.07;;;;;0.20;95428.00;;;;8336531;28;20195;-76
2023/01/19 20:14:24;;;;;;;13.80;7.63;;;;;0.10;95434.00;;;;8336654;28;20206;-76
2023/01/19 20:18:29;;;;;;;21.37;9.43;;;;;0.00;95434.00;;;;8337079;28;20292;-76
2023/01/19 20:22:37;;;;;;;16.93;8.10;;;;;0.00;95438.00;;;;8336799;28;20222;-76
2023/01/19 20:26:46;;;;;;;18.53;8.17;;;;;0.00;95441.00;;;;8336335;28;20198;-76
2023/01/19 20:30:53;;;;;;;17.20;8.37;;;;;0.00;95442.00;;;;8335428;28;20197;-75
2023/01/19 20:34:58;;;;;;;16.87;9.17;;;;;0.00;95447.00;;;;8333673;28;20217;-76
2023/01/19 20:39:07;;;;;;;23.67;10.63;;;;;0.10;95458.00;;;;8336941;28;20193;-76